sensor_id;sensor_type;location;lat;lon;timestamp;P1;durP1;ratioP1;P2;durP2;ratioP2
840;SDS011;406;48.566;13.450;2023-03-02T00:01:58;20.40;;;12.70;;
840;SDS011;406;48.566;13.450;2023-03-02T00:04:31;18.13;;;12.93;;
840;SDS011;406;48.566;13.450;2023-03-02T00:07:12;21.25;;;12.50;;
840;SDS011;406;48.566;13.450;2023-03-02T00:09:41;19.48;;;11.60;;
840;SDS011;406;48.566;13.450;2023-03-02T00:12:09;15.27;;;9.90;;
840;SDS011;406;48.566;13.450;2023-03-02T00:14:36;18.58;;;11.23;;
840;SDS011;406;48.566;13.450;2023-03-02T00:17:05;17.48;;;10.30;;
840;SDS011;406;48.566;13.450;2023-03-02T00:19:33;18.83;;;11.27;;
840;SDS011;406;48.566;13.450;2023-03-02T00:21:59;17.13;;;10.50;;
840;SDS011;406;48.566;13.450;2023-03-02T00:24:26;17.75;;;10.82;;
840;SDS011;406;48.566;13.450;2023-03-02T00:26:52;17.25;;;11.20;;
840;SDS011;406;48.566;13.450;2023-03-02T00:29:19;20.83;;;13.88;;
840;SDS011;406;48.566;13.450;2023-03-02T00:31:45;18.45;;;11.45;;
840;SDS011;406;48.566;13.450;2023-03-02T00:34:13;21.27;;;12.68;;
840;SDS011;406;48.566;13.450;2023-03-02T00:36:39;19.30;;;12.27;;
840;SDS011;406;48.566;13.450;2023-03-02T00:39:06;21.48;;;13.27;;
840;SDS011;406;48.566;13.450;2023-03-02T00:41:33;21.20;;;11.95;;
840;SDS011;406;48.566;13.450;2023-03-02T00:44:00;17.35;;;9.88;;
840;SDS011;406;48.566;13.450;2023-03-02T00:46:26;18.23;;;10.90;;
840;SDS011;406;48.566;13.450;2023-03-02T00:48:54;24.80;;;12.85;;
840;SDS011;406;48.566;13.450;2023-03-02T00:51:20;19.70;;;11.82;;
840;SDS011;406;48.566;13.450;2023-03-02T00:53:47;19.38;;;11.90;;
840;SDS011;406;48.566;13.450;2023-03-02T00:56:14;22.45;;;11.30;;
840;SDS011;406;48.566;13.450;2023-03-02T00:58:46;22.75;;;12.50;;
840;SDS011;406;48.566;13.450;2023-03-02T01:01:12;19.50;;;11.38;;
840;SDS011;406;48.566;13.450;2023-03-02T01:03:44;20.77;;;12.32;;
840;SDS011;406;48.566;13.450;2023-03-02T01:06:13;20.50;;;12.35;;
840;SDS011;406;48.566;13.450;2023-03-02T01:08:42;20.70;;;12.13;;
840;SDS011;406;48.566;13.450;2023-03-02T01:11:11;20.08;;;12.20;;
840;SDS011;406;48.566;13.450;2023-03-02T01:13:39;19.38;;;10.77;;
840;SDS011;406;48.566;13.450;2023-03-02T01:16:06;21.40;;;12.85;;
840;SDS011;406;48.566;13.450;2023-03-02T01:18:33;21.27;;;12.77;;
840;SDS011;406;48.566;13.450;2023-03-02T01:21:02;19.90;;;11.45;;
840;SDS011;406;48.566;13.450;2023-03-02T01:23:33;15.10;;;8.90;;
840;SDS011;406;48.566;13.450;2023-03-02T01:26:01;17.87;;;11.03;;
840;SDS011;406;48.566;13.450;2023-03-02T01:28:28;14.90;;;10.07;;
840;SDS011;406;48.566;13.450;2023-03-02T01:30:54;23.23;;;11.70;;
840;SDS011;406;48.566;13.450;2023-03-02T01:33:21;20.73;;;11.73;;
840;SDS011;406;48.566;13.450;2023-03-02T01:35:48;19.88;;;11.55;;
840;SDS011;406;48.566;13.450;2023-03-02T01:38:14;18.90;;;9.75;;
840;SDS011;406;48.566;13.450;2023-03-02T01:40:41;19.95;;;10.85;;
840;SDS011;406;48.566;13.450;2023-03-02T01:43:12;14.57;;;9.77;;
840;SDS011;406;48.566;13.450;2023-03-02T01:45:45;17.13;;;9.30;;
840;SDS011;406;48.566;13.450;2023-03-02T01:48:40;15.05;;;9.95;;
840;SDS011;406;48.566;13.450;2023-03-02T01:51:15;20.27;;;10.93;;
840;SDS011;406;48.566;13.450;2023-03-02T01:53:45;22.37;;;12.03;;
840;SDS011;406;48.566;13.450;2023-03-02T01:56:17;21.88;;;11.20;;
840;SDS011;406;48.566;13.450;2023-03-02T01:58:45;18.63;;;11.15;;
840;SDS011;406;48.566;13.450;2023-03-02T02:01:14;17.27;;;10.93;;
840;SDS011;406;48.566;13.450;2023-03-02T02:03:42;17.10;;;10.43;;
840;SDS011;406;48.566;13.450;2023-03-02T02:08:43;16.35;;;10.23;;
840;SDS011;406;48.566;13.450;2023-03-02T02:11:11;14.48;;;9.15;;
840;SDS011;406;48.566;13.450;2023-03-02T02:13:38;20.13;;;12.77;;
840;SDS011;406;48.566;13.450;2023-03-02T02:16:05;19.00;;;12.20;;
840;SDS011;406;48.566;13.450;2023-03-02T02:18:32;19.35;;;11.20;;
840;SDS011;406;48.566;13.450;2023-03-02T02:21:00;19.90;;;12.18;;
840;SDS011;406;48.566;13.450;2023-03-02T02:26:15;18.92;;;11.32;;
840;SDS011;406;48.566;13.450;2023-03-02T02:28:59;17.52;;;12.10;;
840;SDS011;406;48.566;13.450;2023-03-02T02:31:39;17.85;;;11.48;;
840;SDS011;406;48.566;13.450;2023-03-02T02:34:11;19.83;;;12.45;;
840;SDS011;406;48.566;13.450;2023-03-02T02:36:42;16.63;;;9.93;;
840;SDS011;406;48.566;13.450;2023-03-02T02:39:18;20.52;;;11.43;;
840;SDS011;406;48.566;13.450;2023-03-02T02:41:46;23.33;;;11.48;;
840;SDS011;406;48.566;13.450;2023-03-02T02:44:16;16.25;;;11.30;;
840;SDS011;406;48.566;13.450;2023-03-02T02:46:43;19.77;;;11.27;;
840;SDS011;406;48.566;13.450;2023-03-02T02:49:17;15.93;;;11.02;;
840;SDS011;406;48.566;13.450;2023-03-02T02:51:45;15.27;;;10.05;;
840;SDS011;406;48.566;13.450;2023-03-02T02:54:13;18.42;;;10.38;;
840;SDS011;406;48.566;13.450;2023-03-02T02:56:43;16.83;;;11.48;;
840;SDS011;406;48.566;13.450;2023-03-02T02:59:19;20.42;;;11.13;;
840;SDS011;406;48.566;13.450;2023-03-02T03:01:47;17.85;;;13.02;;
840;SDS011;406;48.566;13.450;2023-03-02T03:04:18;21.55;;;14.98;;
840;SDS011;406;48.566;13.450;2023-03-02T03:06:53;18.73;;;11.43;;
840;SDS011;406;48.566;13.450;2023-03-02T03:09:22;20.00;;;12.68;;
840;SDS011;406;48.566;13.450;2023-03-02T03:12:12;19.23;;;11.55;;
840;SDS011;406;48.566;13.450;2023-03-02T03:14:39;20.35;;;11.15;;
840;SDS011;406;48.566;13.450;2023-03-02T03:17:08;22.15;;;12.30;;
840;SDS011;406;48.566;13.450;2023-03-02T03:19:45;17.80;;;12.25;;
840;SDS011;406;48.566;13.450;2023-03-02T03:22:13;17.38;;;11.02;;
840;SDS011;406;48.566;13.450;2023-03-02T03:24:43;16.70;;;10.02;;
840;SDS011;406;48.566;13.450;2023-03-02T03:27:13;16.88;;;10.85;;
840;SDS011;406;48.566;13.450;2023-03-02T03:29:43;18.95;;;11.70;;
840;SDS011;406;48.566;13.450;2023-03-02T03:32:12;16.70;;;10.70;;
840;SDS011;406;48.566;13.450;2023-03-02T03:34:39;16.23;;;9.55;;
840;SDS011;406;48.566;13.450;2023-03-02T03:37:15;19.08;;;11.63;;
840;SDS011;406;48.566;13.450;2023-03-02T03:39:44;19.08;;;12.52;;
840;SDS011;406;48.566;13.450;2023-03-02T03:42:11;17.65;;;11.43;;
840;SDS011;406;48.566;13.450;2023-03-02T03:44:37;19.05;;;11.48;;
840;SDS011;406;48.566;13.450;2023-03-02T03:47:04;19.67;;;11.63;;
840;SDS011;406;48.566;13.450;2023-03-02T03:49:31;16.42;;;11.30;;
840;SDS011;406;48.566;13.450;2023-03-02T03:51:57;15.82;;;11.15;;
840;SDS011;406;48.566;13.450;2023-03-02T03:54:24;19.08;;;12.18;;
840;SDS011;406;48.566;13.450;2023-03-02T03:56:50;21.38;;;12.48;;
840;SDS011;406;48.566;13.450;2023-03-02T03:59:19;16.92;;;11.68;;
840;SDS011;406;48.566;13.450;2023-03-02T04:01:58;21.33;;;12.18;;
840;SDS011;406;48.566;13.450;2023-03-02T04:04:33;18.88;;;10.70;;
840;SDS011;406;48.566;13.450;2023-03-02T04:07:05;20.33;;;13.35;;
840;SDS011;406;48.566;13.450;2023-03-02T04:09:32;23.55;;;13.93;;
840;SDS011;406;48.566;13.450;2023-03-02T04:12:04;17.25;;;11.15;;
840;SDS011;406;48.566;13.450;2023-03-02T04:14:31;18.50;;;11.63;;
840;SDS011;406;48.566;13.450;2023-03-02T04:16:59;19.20;;;10.98;;
840;SDS011;406;48.566;13.450;2023-03-02T04:19:26;23.15;;;14.27;;
840;SDS011;406;48.566;13.450;2023-03-02T04:21:55;19.92;;;10.75;;
840;SDS011;406;48.566;13.450;2023-03-02T04:24:23;19.73;;;12.85;;
840;SDS011;406;48.566;13.450;2023-03-02T04:26:53;21.23;;;12.35;;
840;SDS011;406;48.566;13.450;2023-03-02T04:29:20;23.70;;;12.90;;
840;SDS011;406;48.566;13.450;2023-03-02T04:31:49;22.65;;;12.18;;
840;SDS011;406;48.566;13.450;2023-03-02T04:34:17;19.15;;;12.82;;
840;SDS011;406;48.566;13.450;2023-03-02T04:36:44;27.20;;;12.70;;
840;SDS011;406;48.566;13.450;2023-03-02T04:39:14;21.80;;;13.98;;
840;SDS011;406;48.566;13.450;2023-03-02T04:41:45;23.50;;;12.40;;
840;SDS011;406;48.566;13.450;2023-03-02T04:44:12;20.05;;;11.13;;
840;SDS011;406;48.566;13.450;2023-03-02T04:46:40;18.48;;;13.30;;
840;SDS011;406;48.566;13.450;2023-03-02T04:49:10;16.52;;;10.07;;
840;SDS011;406;48.566;13.450;2023-03-02T04:51:40;17.63;;;9.75;;
840;SDS011;406;48.566;13.450;2023-03-02T04:54:18;20.95;;;10.40;;
840;SDS011;406;48.566;13.450;2023-03-02T04:56:46;18.48;;;10.70;;
840;SDS011;406;48.566;13.450;2023-03-02T04:59:18;24.63;;;13.82;;
840;SDS011;406;48.566;13.450;2023-03-02T05:01:46;16.55;;;10.90;;
840;SDS011;406;48.566;13.450;2023-03-02T05:04:13;21.10;;;10.70;;
840;SDS011;406;48.566;13.450;2023-03-02T05:06:40;15.82;;;10.95;;
840;SDS011;406;48.566;13.450;2023-03-02T05:09:06;17.50;;;10.75;;
840;SDS011;406;48.566;13.450;2023-03-02T05:11:33;21.45;;;13.00;;
840;SDS011;406;48.566;13.450;2023-03-02T05:14:01;31.42;;;11.90;;
840;SDS011;406;48.566;13.450;2023-03-02T05:16:29;20.63;;;10.65;;
840;SDS011;406;48.566;13.450;2023-03-02T05:18:58;10.90;;;7.53;;
840;SDS011;406;48.566;13.450;2023-03-02T05:21:26;19.85;;;11.38;;
840;SDS011;406;48.566;13.450;2023-03-02T05:23:52;18.20;;;11.25;;
840;SDS011;406;48.566;13.450;2023-03-02T05:26:19;20.42;;;14.23;;
840;SDS011;406;48.566;13.450;2023-03-02T05:28:45;22.00;;;11.85;;
840;SDS011;406;48.566;13.450;2023-03-02T05:34:01;16.63;;;11.23;;
840;SDS011;406;48.566;13.450;2023-03-02T05:36:28;26.40;;;16.67;;
840;SDS011;406;48.566;13.450;2023-03-02T05:38:54;20.58;;;12.82;;
840;SDS011;406;48.566;13.450;2023-03-02T05:41:21;16.48;;;7.43;;
840;SDS011;406;48.566;13.450;2023-03-02T05:43:48;15.27;;;8.90;;
840;SDS011;406;48.566;13.450;2023-03-02T05:46:14;21.60;;;14.15;;
840;SDS011;406;48.566;13.450;2023-03-02T05:48:42;17.92;;;11.55;;
840;SDS011;406;48.566;13.450;2023-03-02T05:51:09;21.20;;;12.73;;
840;SDS011;406;48.566;13.450;2023-03-02T05:53:35;22.80;;;13.05;;
840;SDS011;406;48.566;13.450;2023-03-02T05:56:02;24.13;;;14.57;;
840;SDS011;406;48.566;13.450;2023-03-02T05:58:29;16.73;;;10.75;;
840;SDS011;406;48.566;13.450;2023-03-02T06:00:55;19.73;;;11.60;;
840;SDS011;406;48.566;13.450;2023-03-02T06:03:22;20.85;;;14.50;;
840;SDS011;406;48.566;13.450;2023-03-02T06:05:48;20.17;;;11.07;;
840;SDS011;406;48.566;13.450;2023-03-02T06:08:16;19.70;;;10.80;;
840;SDS011;406;48.566;13.450;2023-03-02T06:10:43;18.65;;;11.68;;
840;SDS011;406;48.566;13.450;2023-03-02T06:13:10;21.50;;;14.00;;
840;SDS011;406;48.566;13.450;2023-03-02T06:15:37;23.13;;;13.07;;
840;SDS011;406;48.566;13.450;2023-03-02T06:18:05;20.83;;;13.18;;
840;SDS011;406;48.566;13.450;2023-03-02T06:20:32;20.25;;;13.77;;
840;SDS011;406;48.566;13.450;2023-03-02T06:22:58;18.65;;;11.95;;
840;SDS011;406;48.566;13.450;2023-03-02T06:25:25;24.77;;;15.05;;
840;SDS011;406;48.566;13.450;2023-03-02T06:27:51;21.38;;;12.63;;
840;SDS011;406;48.566;13.450;2023-03-02T06:30:21;19.85;;;12.45;;
840;SDS011;406;48.566;13.450;2023-03-02T06:32:49;27.75;;;11.55;;
840;SDS011;406;48.566;13.450;2023-03-02T06:35:16;16.60;;;11.40;;
840;SDS011;406;48.566;13.450;2023-03-02T06:37:43;17.48;;;10.52;;
840;SDS011;406;48.566;13.450;2023-03-02T06:40:10;16.75;;;10.00;;
840;SDS011;406;48.566;13.450;2023-03-02T06:42:38;17.92;;;10.68;;
840;SDS011;406;48.566;13.450;2023-03-02T06:45:07;19.52;;;11.00;;
840;SDS011;406;48.566;13.450;2023-03-02T06:47:34;24.45;;;11.73;;
840;SDS011;406;48.566;13.450;2023-03-02T06:50:01;21.67;;;12.35;;
840;SDS011;406;48.566;13.450;2023-03-02T06:52:27;20.58;;;13.38;;
840;SDS011;406;48.566;13.450;2023-03-02T06:54:54;21.02;;;13.65;;
840;SDS011;406;48.566;13.450;2023-03-02T06:57:21;21.45;;;12.32;;
840;SDS011;406;48.566;13.450;2023-03-02T06:59:47;24.92;;;11.82;;
840;SDS011;406;48.566;13.450;2023-03-02T07:02:14;15.43;;;11.90;;
840;SDS011;406;48.566;13.450;2023-03-02T07:04:40;21.73;;;11.82;;
840;SDS011;406;48.566;13.450;2023-03-02T07:07:07;22.83;;;11.70;;
840;SDS011;406;48.566;13.450;2023-03-02T07:09:33;24.10;;;11.00;;
840;SDS011;406;48.566;13.450;2023-03-02T07:12:00;26.02;;;15.90;;
840;SDS011;406;48.566;13.450;2023-03-02T07:14:27;29.63;;;10.10;;
840;SDS011;406;48.566;13.450;2023-03-02T07:16:53;28.02;;;11.88;;
840;SDS011;406;48.566;13.450;2023-03-02T07:19:22;24.85;;;11.75;;
840;SDS011;406;48.566;13.450;2023-03-02T07:21:49;15.23;;;8.52;;
840;SDS011;406;48.566;13.450;2023-03-02T07:24:16;14.23;;;9.30;;
840;SDS011;406;48.566;13.450;2023-03-02T07:26:42;26.17;;;14.10;;
840;SDS011;406;48.566;13.450;2023-03-02T07:29:09;16.05;;;8.65;;
840;SDS011;406;48.566;13.450;2023-03-02T07:31:35;15.27;;;9.73;;
840;SDS011;406;48.566;13.450;2023-03-02T07:34:02;14.52;;;9.27;;
840;SDS011;406;48.566;13.450;2023-03-02T07:36:29;17.60;;;10.05;;
840;SDS011;406;48.566;13.450;2023-03-02T07:38:55;19.97;;;9.70;;
840;SDS011;406;48.566;13.450;2023-03-02T07:41:23;16.10;;;9.77;;
840;SDS011;406;48.566;13.450;2023-03-02T07:43:49;15.82;;;7.78;;
840;SDS011;406;48.566;13.450;2023-03-02T07:46:16;17.03;;;8.97;;
840;SDS011;406;48.566;13.450;2023-03-02T07:48:42;20.92;;;8.52;;
840;SDS011;406;48.566;13.450;2023-03-02T07:51:09;22.87;;;9.00;;
840;SDS011;406;48.566;13.450;2023-03-02T07:53:35;14.33;;;8.80;;
840;SDS011;406;48.566;13.450;2023-03-02T07:56:09;19.47;;;9.03;;
840;SDS011;406;48.566;13.450;2023-03-02T07:58:36;13.63;;;8.33;;
840;SDS011;406;48.566;13.450;2023-03-02T08:01:03;13.90;;;8.23;;
840;SDS011;406;48.566;13.450;2023-03-02T08:03:30;17.77;;;8.00;;
840;SDS011;406;48.566;13.450;2023-03-02T08:05:56;11.47;;;6.70;;
840;SDS011;406;48.566;13.450;2023-03-02T08:08:23;17.27;;;8.23;;
840;SDS011;406;48.566;13.450;2023-03-02T08:10:50;15.63;;;8.37;;
840;SDS011;406;48.566;13.450;2023-03-02T08:13:18;15.17;;;8.03;;
840;SDS011;406;48.566;13.450;2023-03-02T08:15:44;13.70;;;6.63;;
840;SDS011;406;48.566;13.450;2023-03-02T08:18:11;14.10;;;7.13;;
840;SDS011;406;48.566;13.450;2023-03-02T08:20:38;10.90;;;8.13;;
840;SDS011;406;48.566;13.450;2023-03-02T08:23:04;15.37;;;6.67;;
840;SDS011;406;48.566;13.450;2023-03-02T08:25:32;12.27;;;7.23;;
840;SDS011;406;48.566;13.450;2023-03-02T08:27:59;10.80;;;7.30;;
840;SDS011;406;48.566;13.450;2023-03-02T08:30:25;15.13;;;8.30;;
840;SDS011;406;48.566;13.450;2023-03-02T08:32:52;10.10;;;7.20;;
840;SDS011;406;48.566;13.450;2023-03-02T08:35:18;14.60;;;7.93;;
840;SDS011;406;48.566;13.450;2023-03-02T08:37:47;16.37;;;8.60;;
840;SDS011;406;48.566;13.450;2023-03-02T08:40:14;12.27;;;6.83;;
840;SDS011;406;48.566;13.450;2023-03-02T08:42:41;11.93;;;7.10;;
840;SDS011;406;48.566;13.450;2023-03-02T08:45:07;18.13;;;8.50;;
840;SDS011;406;48.566;13.450;2023-03-02T08:47:34;12.50;;;7.00;;
840;SDS011;406;48.566;13.450;2023-03-02T08:50:01;13.30;;;8.47;;
840;SDS011;406;48.566;13.450;2023-03-02T08:52:27;12.37;;;7.50;;
840;SDS011;406;48.566;13.450;2023-03-02T08:54:54;14.50;;;8.00;;
840;SDS011;406;48.566;13.450;2023-03-02T08:57:21;12.73;;;7.40;;
840;SDS011;406;48.566;13.450;2023-03-02T08:59:47;14.33;;;8.67;;
840;SDS011;406;48.566;13.450;2023-03-02T09:02:14;21.27;;;8.50;;
840;SDS011;406;48.566;13.450;2023-03-02T09:04:40;17.07;;;7.83;;
840;SDS011;406;48.566;13.450;2023-03-02T09:07:07;12.77;;;7.40;;
840;SDS011;406;48.566;13.450;2023-03-02T09:09:35;10.17;;;7.70;;
840;SDS011;406;48.566;13.450;2023-03-02T09:12:01;12.23;;;7.13;;
840;SDS011;406;48.566;13.450;2023-03-02T09:14:28;11.20;;;6.80;;
840;SDS011;406;48.566;13.450;2023-03-02T09:16:54;15.40;;;7.50;;
840;SDS011;406;48.566;13.450;2023-03-02T09:19:21;12.77;;;7.27;;
840;SDS011;406;48.566;13.450;2023-03-02T09:21:48;13.50;;;6.20;;
840;SDS011;406;48.566;13.450;2023-03-02T09:24:15;14.23;;;7.00;;
840;SDS011;406;48.566;13.450;2023-03-02T09:26:41;14.07;;;8.37;;
840;SDS011;406;48.566;13.450;2023-03-02T09:29:08;12.20;;;5.87;;
840;SDS011;406;48.566;13.450;2023-03-02T09:31:35;12.80;;;7.37;;
840;SDS011;406;48.566;13.450;2023-03-02T09:34:03;16.93;;;7.57;;
840;SDS011;406;48.566;13.450;2023-03-02T09:36:30;15.20;;;6.80;;
840;SDS011;406;48.566;13.450;2023-03-02T09:38:58;14.30;;;6.87;;
840;SDS011;406;48.566;13.450;2023-03-02T09:41:32;12.43;;;6.83;;
840;SDS011;406;48.566;13.450;2023-03-02T09:46:41;19.50;;;6.97;;
840;SDS011;406;48.566;13.450;2023-03-02T09:55:12;13.00;;;7.23;;
840;SDS011;406;48.566;13.450;2023-03-02T09:57:47;13.10;;;6.80;;
840;SDS011;406;48.566;13.450;2023-03-02T10:00:25;13.00;;;6.80;;
840;SDS011;406;48.566;13.450;2023-03-02T10:03:01;12.53;;;6.50;;
840;SDS011;406;48.566;13.450;2023-03-02T10:05:52;16.13;;;6.80;;
840;SDS011;406;48.566;13.450;2023-03-02T10:08:20;12.13;;;7.03;;
840;SDS011;406;48.566;13.450;2023-03-02T10:13:24;11.03;;;6.90;;
840;SDS011;406;48.566;13.450;2023-03-02T10:15:55;12.83;;;6.10;;
840;SDS011;406;48.566;13.450;2023-03-02T10:23:30;7.10;;;4.17;;
840;SDS011;406;48.566;13.450;2023-03-02T10:26:14;12.30;;;6.17;;
840;SDS011;406;48.566;13.450;2023-03-02T10:28:59;9.07;;;4.37;;
840;SDS011;406;48.566;13.450;2023-03-02T10:31:29;8.87;;;4.33;;
840;SDS011;406;48.566;13.450;2023-03-02T10:33:57;11.50;;;5.10;;
840;SDS011;406;48.566;13.450;2023-03-02T10:36:26;11.73;;;4.93;;
840;SDS011;406;48.566;13.450;2023-03-02T10:38:54;16.73;;;4.47;;
840;SDS011;406;48.566;13.450;2023-03-02T10:41:31;7.70;;;4.20;;
840;SDS011;406;48.566;13.450;2023-03-02T10:44:09;4.43;;;4.00;;
840;SDS011;406;48.566;13.450;2023-03-02T10:46:41;7.73;;;4.90;;
840;SDS011;406;48.566;13.450;2023-03-02T10:49:26;12.33;;;4.63;;
840;SDS011;406;48.566;13.450;2023-03-02T10:54:32;8.33;;;4.80;;
840;SDS011;406;48.566;13.450;2023-03-02T10:57:00;17.47;;;5.53;;
840;SDS011;406;48.566;13.450;2023-03-02T10:59:46;9.30;;;4.50;;
840;SDS011;406;48.566;13.450;2023-03-02T11:02:17;11.30;;;5.10;;
840;SDS011;406;48.566;13.450;2023-03-02T11:04:56;13.73;;;4.57;;
840;SDS011;406;48.566;13.450;2023-03-02T11:07:25;6.20;;;4.60;;
840;SDS011;406;48.566;13.450;2023-03-02T11:10:00;13.47;;;5.00;;
840;SDS011;406;48.566;13.450;2023-03-02T11:12:29;13.00;;;4.93;;
840;SDS011;406;48.566;13.450;2023-03-02T11:15:00;6.90;;;4.20;;
840;SDS011;406;48.566;13.450;2023-03-02T11:17:40;10.07;;;4.63;;
840;SDS011;406;48.566;13.450;2023-03-02T11:20:12;10.13;;;4.87;;
840;SDS011;406;48.566;13.450;2023-03-02T11:25:56;7.00;;;4.13;;
840;SDS011;406;48.566;13.450;2023-03-02T11:28:44;10.87;;;5.10;;
840;SDS011;406;48.566;13.450;2023-03-02T11:31:20;14.83;;;5.97;;
840;SDS011;406;48.566;13.450;2023-03-02T11:34:04;8.80;;;4.17;;
840;SDS011;406;48.566;13.450;2023-03-02T11:36:57;11.77;;;4.97;;
840;SDS011;406;48.566;13.450;2023-03-02T11:39:34;8.30;;;4.50;;
840;SDS011;406;48.566;13.450;2023-03-02T11:42:32;11.27;;;5.10;;
840;SDS011;406;48.566;13.450;2023-03-02T11:45:02;8.00;;;3.93;;
840;SDS011;406;48.566;13.450;2023-03-02T11:47:44;10.33;;;4.93;;
840;SDS011;406;48.566;13.450;2023-03-02T11:50:23;11.40;;;4.77;;
840;SDS011;406;48.566;13.450;2023-03-02T11:52:52;6.47;;;4.10;;
840;SDS011;406;48.566;13.450;2023-03-02T11:55:21;10.40;;;5.73;;
840;SDS011;406;48.566;13.450;2023-03-02T11:57:53;6.80;;;5.97;;
840;SDS011;406;48.566;13.450;2023-03-02T12:00:29;10.30;;;4.80;;
840;SDS011;406;48.566;13.450;2023-03-02T12:03:01;7.90;;;3.80;;
840;SDS011;406;48.566;13.450;2023-03-02T12:05:29;12.13;;;4.10;;
840;SDS011;406;48.566;13.450;2023-03-02T12:10:39;7.90;;;4.27;;
840;SDS011;406;48.566;13.450;2023-03-02T12:13:20;13.67;;;4.77;;
840;SDS011;406;48.566;13.450;2023-03-02T12:15:49;10.30;;;4.33;;
840;SDS011;406;48.566;13.450;2023-03-02T12:23:25;7.07;;;3.50;;
840;SDS011;406;48.566;13.450;2023-03-02T12:29:01;15.97;;;3.70;;
840;SDS011;406;48.566;13.450;2023-03-02T12:34:25;10.23;;;4.07;;
840;SDS011;406;48.566;13.450;2023-03-02T12:37:12;9.93;;;4.03;;
840;SDS011;406;48.566;13.450;2023-03-02T12:43:25;8.33;;;3.53;;
840;SDS011;406;48.566;13.450;2023-03-02T12:49:12;7.40;;;4.80;;
840;SDS011;406;48.566;13.450;2023-03-02T12:54:22;7.53;;;3.67;;
840;SDS011;406;48.566;13.450;2023-03-02T12:57:06;7.10;;;3.53;;
840;SDS011;406;48.566;13.450;2023-03-02T12:59:39;7.23;;;4.13;;
840;SDS011;406;48.566;13.450;2023-03-02T13:02:10;6.57;;;3.23;;
840;SDS011;406;48.566;13.450;2023-03-02T13:04:39;10.40;;;5.80;;
840;SDS011;406;48.566;13.450;2023-03-02T13:07:13;5.47;;;3.60;;
840;SDS011;406;48.566;13.450;2023-03-02T13:09:41;5.23;;;3.00;;
840;SDS011;406;48.566;13.450;2023-03-02T13:12:21;6.03;;;3.67;;
840;SDS011;406;48.566;13.450;2023-03-02T13:14:52;7.10;;;3.80;;
840;SDS011;406;48.566;13.450;2023-03-02T13:17:24;10.37;;;3.77;;
840;SDS011;406;48.566;13.450;2023-03-02T13:19:59;8.47;;;3.60;;
840;SDS011;406;48.566;13.450;2023-03-02T13:22:27;10.43;;;4.03;;
840;SDS011;406;48.566;13.450;2023-03-02T13:24:59;8.20;;;3.83;;
840;SDS011;406;48.566;13.450;2023-03-02T13:27:27;11.77;;;3.50;;
840;SDS011;406;48.566;13.450;2023-03-02T13:29:54;11.33;;;3.37;;
840;SDS011;406;48.566;13.450;2023-03-02T13:32:26;10.37;;;3.23;;
840;SDS011;406;48.566;13.450;2023-03-02T13:34:59;5.03;;;2.93;;
840;SDS011;406;48.566;13.450;2023-03-02T13:37:37;8.90;;;3.50;;
840;SDS011;406;48.566;13.450;2023-03-02T13:42:47;10.73;;;8.30;;
840;SDS011;406;48.566;13.450;2023-03-02T13:45:20;10.40;;;5.93;;
840;SDS011;406;48.566;13.450;2023-03-02T13:47:50;12.70;;;7.50;;
840;SDS011;406;48.566;13.450;2023-03-02T13:50:21;14.60;;;8.60;;
840;SDS011;406;48.566;13.450;2023-03-02T13:52:59;12.57;;;7.07;;
840;SDS011;406;48.566;13.450;2023-03-02T13:55:27;14.63;;;7.80;;
840;SDS011;406;48.566;13.450;2023-03-02T13:57:54;9.97;;;7.40;;
840;SDS011;406;48.566;13.450;2023-03-02T14:00:22;20.87;;;8.30;;
840;SDS011;406;48.566;13.450;2023-03-02T14:02:55;9.50;;;7.07;;
840;SDS011;406;48.566;13.450;2023-03-02T14:05:22;12.67;;;7.87;;
840;SDS011;406;48.566;13.450;2023-03-02T14:07:52;11.03;;;7.50;;
840;SDS011;406;48.566;13.450;2023-03-02T14:10:19;7.73;;;6.07;;
840;SDS011;406;48.566;13.450;2023-03-02T14:12:49;9.67;;;7.03;;
840;SDS011;406;48.566;13.450;2023-03-02T14:15:19;10.90;;;7.43;;
840;SDS011;406;48.566;13.450;2023-03-02T14:17:46;12.57;;;6.80;;
840;SDS011;406;48.566;13.450;2023-03-02T14:20:15;14.90;;;8.00;;
840;SDS011;406;48.566;13.450;2023-03-02T14:22:47;11.37;;;6.63;;
840;SDS011;406;48.566;13.450;2023-03-02T14:25:14;11.57;;;7.03;;
840;SDS011;406;48.566;13.450;2023-03-02T14:27:41;11.60;;;8.27;;
840;SDS011;406;48.566;13.450;2023-03-02T14:30:16;10.37;;;6.30;;
840;SDS011;406;48.566;13.450;2023-03-02T14:32:44;8.50;;;6.10;;
840;SDS011;406;48.566;13.450;2023-03-02T14:35:11;11.40;;;6.53;;
840;SDS011;406;48.566;13.450;2023-03-02T14:37:42;9.23;;;6.00;;
840;SDS011;406;48.566;13.450;2023-03-02T14:42:48;11.70;;;6.90;;
840;SDS011;406;48.566;13.450;2023-03-02T14:45:16;11.97;;;7.03;;
840;SDS011;406;48.566;13.450;2023-03-02T14:47:43;9.37;;;6.60;;
840;SDS011;406;48.566;13.450;2023-03-02T14:50:10;11.80;;;7.10;;
840;SDS011;406;48.566;13.450;2023-03-02T14:52:43;11.30;;;7.60;;
840;SDS011;406;48.566;13.450;2023-03-02T14:55:21;9.10;;;6.43;;
840;SDS011;406;48.566;13.450;2023-03-02T14:58:10;10.50;;;7.03;;
840;SDS011;406;48.566;13.450;2023-03-02T15:00:40;10.70;;;6.93;;
840;SDS011;406;48.566;13.450;2023-03-02T15:03:10;10.50;;;6.10;;
840;SDS011;406;48.566;13.450;2023-03-02T15:05:39;11.10;;;6.83;;
840;SDS011;406;48.566;13.450;2023-03-02T15:08:14;7.67;;;6.63;;
840;SDS011;406;48.566;13.450;2023-03-02T15:10:40;9.03;;;7.13;;
840;SDS011;406;48.566;13.450;2023-03-02T15:13:08;12.57;;;7.00;;
840;SDS011;406;48.566;13.450;2023-03-02T15:15:36;10.27;;;7.70;;
840;SDS011;406;48.566;13.450;2023-03-02T15:18:03;10.97;;;7.43;;
840;SDS011;406;48.566;13.450;2023-03-02T15:20:29;9.17;;;6.60;;
840;SDS011;406;48.566;13.450;2023-03-02T15:22:56;10.87;;;7.03;;
840;SDS011;406;48.566;13.450;2023-03-02T15:25:22;9.33;;;6.90;;
840;SDS011;406;48.566;13.450;2023-03-02T15:27:51;10.17;;;6.90;;
840;SDS011;406;48.566;13.450;2023-03-02T15:30:18;12.70;;;7.20;;
840;SDS011;406;48.566;13.450;2023-03-02T15:32:44;11.53;;;7.43;;
840;SDS011;406;48.566;13.450;2023-03-02T15:35:11;8.93;;;7.13;;
840;SDS011;406;48.566;13.450;2023-03-02T15:37:37;10.70;;;7.00;;
840;SDS011;406;48.566;13.450;2023-03-02T15:40:04;14.07;;;7.70;;
840;SDS011;406;48.566;13.450;2023-03-02T15:42:31;12.63;;;7.87;;
840;SDS011;406;48.566;13.450;2023-03-02T15:44:58;9.80;;;6.80;;
840;SDS011;406;48.566;13.450;2023-03-02T15:47:24;19.10;;;7.57;;
840;SDS011;406;48.566;13.450;2023-03-02T15:49:51;9.60;;;6.70;;
840;SDS011;406;48.566;13.450;2023-03-02T15:52:17;10.23;;;7.30;;
840;SDS011;406;48.566;13.450;2023-03-02T15:54:46;9.20;;;6.63;;
840;SDS011;406;48.566;13.450;2023-03-02T15:57:12;12.07;;;7.10;;
840;SDS011;406;48.566;13.450;2023-03-02T15:59:39;13.00;;;7.30;;
840;SDS011;406;48.566;13.450;2023-03-02T16:02:05;8.27;;;6.90;;
840;SDS011;406;48.566;13.450;2023-03-02T16:04:32;17.30;;;7.67;;
840;SDS011;406;48.566;13.450;2023-03-02T16:06:58;11.73;;;8.60;;
840;SDS011;406;48.566;13.450;2023-03-02T16:09:25;10.20;;;6.70;;
840;SDS011;406;48.566;13.450;2023-03-02T16:11:53;9.47;;;6.70;;
840;SDS011;406;48.566;13.450;2023-03-02T16:14:21;8.10;;;7.30;;
840;SDS011;406;48.566;13.450;2023-03-02T16:16:48;11.60;;;7.93;;
840;SDS011;406;48.566;13.450;2023-03-02T16:19:15;11.43;;;8.30;;
840;SDS011;406;48.566;13.450;2023-03-02T16:21:44;11.53;;;8.57;;
840;SDS011;406;48.566;13.450;2023-03-02T16:24:11;12.07;;;8.80;;
840;SDS011;406;48.566;13.450;2023-03-02T16:26:39;11.27;;;7.93;;